createdAt,value
2019-02-14T00:00:08.707Z,18.67
2019-02-14T00:01:09.534Z,18.65
2019-02-14T00:02:08.807Z,18.64
2019-02-14T00:03:08.687Z,18.64
2019-02-14T00:04:09.065Z,18.64
2019-02-14T00:05:16.997Z,18.63
2019-02-14T00:06:09.164Z,18.63
2019-02-14T00:07:08.942Z,18.63
2019-02-14T00:08:08.992Z,18.59
2019-02-14T00:09:08.875Z,18.59
2019-02-14T00:10:08.864Z,18.59
2019-02-14T00:11:08.830Z,18.62
2019-02-14T00:12:09.305Z,18.59
2019-02-14T00:13:08.633Z,18.59
2019-02-14T00:14:08.683Z,18.59
2019-02-14T00:15:10.676Z,18.57
2019-02-14T00:16:09.031Z,18.56
2019-02-14T00:17:08.973Z,18.57
2019-02-14T00:18:10.301Z,18.56
2019-02-14T00:19:09.099Z,18.57
2019-02-14T00:20:09.046Z,18.55
2019-02-14T00:21:09.838Z,18.55
2019-02-14T00:22:09.160Z,18.54
2019-02-14T00:23:09.890Z,18.54
2019-02-14T00:24:09.071Z,18.55
2019-02-14T00:25:08.871Z,18.52
2019-02-14T00:26:09.380Z,18.52
2019-02-14T00:27:09.405Z,18.52
2019-02-14T00:28:08.681Z,18.52
2019-02-14T00:29:09.318Z,18.51
2019-02-14T00:30:08.824Z,18.53
2019-02-14T00:31:09.210Z,18.5
2019-02-14T00:32:10.729Z,18.5
2019-02-14T00:33:08.752Z,18.52
2019-02-14T00:34:08.951Z,18.51
2019-02-14T00:35:08.975Z,18.49
2019-02-14T00:36:09.261Z,18.48
2019-02-14T00:37:09.695Z,18.47
2019-02-14T00:38:08.956Z,18.48
2019-02-14T00:39:10.053Z,18.47
2019-02-14T00:40:08.820Z,18.44
2019-02-14T00:41:09.033Z,18.47
2019-02-14T00:42:09.816Z,18.47
2019-02-14T00:43:09.329Z,18.43
2019-02-14T00:44:08.997Z,18.47
2019-02-14T00:45:08.908Z,18.44
2019-02-14T00:46:09.835Z,18.44
2019-02-14T00:47:08.999Z,18.44
2019-02-14T00:48:09.032Z,18.42
2019-02-14T00:49:08.722Z,18.44
2019-02-14T00:50:09.035Z,18.42
2019-02-14T00:51:08.750Z,18.41
2019-02-14T00:52:09.179Z,18.41
2019-02-14T00:53:09.007Z,18.41
2019-02-14T00:54:10.690Z,18.4
2019-02-14T00:55:09.033Z,18.39
2019-02-14T00:56:09.004Z,18.4
2019-02-14T00:57:09.324Z,18.38
2019-02-14T00:58:08.862Z,18.38
2019-02-14T00:59:09.333Z,18.38
2019-02-14T01:00:09.146Z,18.38
2019-02-14T01:01:09.968Z,18.37
2019-02-14T01:02:09.076Z,18.38
2019-02-14T01:03:08.996Z,18.36
2019-02-14T01:04:08.939Z,18.37
2019-02-14T01:05:09.149Z,18.35
2019-02-14T01:06:09.068Z,18.36
2019-02-14T01:07:09.076Z,18.35
2019-02-14T01:08:10.555Z,18.34
2019-02-14T01:09:09.093Z,18.34
2019-02-14T01:10:09.476Z,18.36
2019-02-14T01:11:09.681Z,18.34
2019-02-14T01:12:09.111Z,18.35
2019-02-14T01:13:09.128Z,18.3
2019-02-14T01:14:08.774Z,18.34
2019-02-14T01:15:09.085Z,18.3
2019-02-14T01:16:09.816Z,18.32
2019-02-14T01:17:08.702Z,18.33
2019-02-14T01:18:08.909Z,18.32
2019-02-14T01:19:09.258Z,18.32
2019-02-14T01:20:09.199Z,18.3
2019-02-14T01:21:09.520Z,18.3
2019-02-14T01:22:10.293Z,18.29
2019-02-14T01:23:09.616Z,18.3
2019-02-14T01:24:10.759Z,18.29
2019-02-14T01:25:08.966Z,18.26
2019-02-14T01:26:10.275Z,18.28
2019-02-14T01:27:09.007Z,18.26
2019-02-14T01:28:08.850Z,18.27
2019-02-14T01:29:08.696Z,18.26
2019-02-14T01:30:09.076Z,18.28
2019-02-14T01:31:08.955Z,18.26
2019-02-14T01:32:09.055Z,18.26
2019-02-14T01:33:09.258Z,18.25
2019-02-14T01:34:09.142Z,18.23
2019-02-14T01:35:09.061Z,18.25
2019-02-14T01:36:10.834Z,18.22
2019-02-14T01:37:09.298Z,18.22
2019-02-14T01:38:08.774Z,18.22
2019-02-14T01:39:09.278Z,18.23
2019-02-14T01:40:09.012Z,18.22
2019-02-14T01:41:09.001Z,18.23
2019-02-14T01:42:10.963Z,18.22
2019-02-14T01:43:09.033Z,18.21
2019-02-14T01:44:09.418Z,18.19
2019-02-14T01:45:09.159Z,18.21
2019-02-14T01:46:10.555Z,18.21
2019-02-14T01:47:08.999Z,18.19
2019-02-14T01:48:09.224Z,18.21
2019-02-14T01:49:08.831Z,18.18
2019-02-14T01:50:08.660Z,18.2
2019-02-14T01:51:08.995Z,18.18
2019-02-14T01:52:08.976Z,18.17
2019-02-14T01:53:08.657Z,18.17
2019-02-14T01:54:10.673Z,18.19
2019-02-14T01:55:09.006Z,18.18
2019-02-14T01:56:08.823Z,18.14
2019-02-14T01:57:09.216Z,18.17
2019-02-14T01:58:08.671Z,18.15
2019-02-14T01:59:08.692Z,18.14
2019-02-14T02:00:09.566Z,18.14
2019-02-14T02:01:08.848Z,18.15
2019-02-14T02:02:10.600Z,18.14
2019-02-14T02:03:09.382Z,18.13
2019-02-14T02:04:08.605Z,18.12
2019-02-14T02:05:09.297Z,18.12
2019-02-14T02:06:09.901Z,18.1
2019-02-14T02:07:08.912Z,18.13
2019-02-14T02:08:09.251Z,18.11
2019-02-14T02:09:09.151Z,18.1
2019-02-14T02:10:08.818Z,18.1
2019-02-14T02:11:09.052Z,18.09
2019-02-14T02:12:08.682Z,18.1
2019-02-14T02:13:08.797Z,18.09
2019-02-14T02:14:08.906Z,18.09
2019-02-14T02:15:08.672Z,18.09
2019-02-14T02:16:09.134Z,18.1
2019-02-14T02:17:08.763Z,18.09
2019-02-14T02:18:08.867Z,18.06
2019-02-14T02:19:08.889Z,18.07
2019-02-14T02:20:08.940Z,18.09
2019-02-14T02:21:09.042Z,18.08
2019-02-14T02:22:08.877Z,18.05
2019-02-14T02:23:09.367Z,18.06
2019-02-14T02:24:08.734Z,18.07
2019-02-14T02:25:09.136Z,18.07
2019-02-14T02:26:09.264Z,18.07
2019-02-14T02:27:09.363Z,18.04
2019-02-14T02:28:08.701Z,18.05
2019-02-14T02:29:09.051Z,18.05
2019-02-14T02:30:08.994Z,18.06
2019-02-14T02:31:09.028Z,18.05
2019-02-14T02:32:08.969Z,18.04
2019-02-14T02:33:10.653Z,18.04
2019-02-14T02:34:09.221Z,18.04
2019-02-14T02:35:09.011Z,18.03
2019-02-14T02:36:08.998Z,18.03
2019-02-14T02:37:10.075Z,18.03
2019-02-14T02:38:09.310Z,18.03
2019-02-14T02:39:09.515Z,18.03
2019-02-14T02:40:08.888Z,17.99
2019-02-14T02:41:08.693Z,18.02
2019-02-14T02:42:08.839Z,18
2019-02-14T02:43:08.990Z,17.96
2019-02-14T02:44:09.291Z,18
2019-02-14T02:45:09.250Z,17.98
2019-02-14T02:46:08.659Z,17.98
2019-02-14T02:47:09.383Z,17.97
2019-02-14T02:48:08.798Z,17.99
2019-02-14T02:49:10.493Z,17.98
2019-02-14T02:50:08.920Z,17.98
2019-02-14T02:51:09.150Z,17.98
2019-02-14T02:52:09.314Z,17.98
2019-02-14T02:53:09.793Z,17.96
2019-02-14T02:54:09.164Z,17.95
2019-02-14T02:55:08.863Z,17.96
2019-02-14T02:56:08.791Z,17.95
2019-02-14T02:57:09.625Z,17.95
2019-02-14T02:58:09.161Z,17.96
2019-02-14T02:59:08.642Z,17.96
2019-02-14T03:00:08.729Z,17.95
2019-02-14T03:01:08.736Z,17.96
2019-02-14T03:02:09.332Z,17.94
2019-02-14T03:03:08.854Z,17.93
2019-02-14T03:04:09.409Z,17.92
2019-02-14T03:05:10.664Z,17.93
2019-02-14T03:06:11.296Z,17.92
2019-02-14T03:07:08.944Z,17.93
2019-02-14T03:08:09.309Z,17.92
2019-02-14T03:09:08.655Z,17.92
2019-02-14T03:10:09.825Z,17.91
2019-02-14T03:11:09.634Z,17.91
2019-02-14T03:12:09.242Z,17.91
2019-02-14T03:13:09.087Z,17.91
2019-02-14T03:14:09.242Z,17.92
2019-02-14T03:15:08.679Z,17.91
2019-02-14T03:16:09.154Z,17.88
2019-02-14T03:17:09.088Z,17.91
2019-02-14T03:18:08.995Z,17.89
2019-02-14T03:19:09.332Z,17.89
2019-02-14T03:20:10.716Z,17.88
2019-02-14T03:21:08.876Z,17.89
2019-02-14T03:22:09.212Z,17.88
2019-02-14T03:23:09.302Z,17.88
2019-02-14T03:24:09.718Z,17.88
2019-02-14T03:25:09.039Z,17.88
2019-02-14T03:26:09.823Z,17.87
2019-02-14T03:27:09.077Z,17.87
2019-02-14T03:28:09.052Z,17.83
2019-02-14T03:29:08.850Z,17.87
2019-02-14T03:30:09.018Z,17.88
2019-02-14T03:31:10.679Z,17.85
2019-02-14T03:32:09.651Z,17.87
2019-02-14T03:33:09.221Z,17.88
2019-02-14T03:34:09.013Z,17.82
2019-02-14T03:35:09.481Z,17.85
2019-02-14T03:36:09.107Z,17.83
2019-02-14T03:37:09.214Z,17.84
2019-02-14T03:38:09.038Z,17.83
2019-02-14T03:39:09.155Z,17.83
2019-02-14T03:40:09.436Z,17.8
2019-02-14T03:41:08.942Z,17.84
2019-02-14T03:42:08.818Z,17.8
2019-02-14T03:43:10.671Z,17.81
2019-02-14T03:44:08.785Z,17.81
2019-02-14T03:45:09.284Z,17.81
2019-02-14T03:46:09.657Z,17.82
2019-02-14T03:47:08.654Z,17.8
2019-02-14T03:48:09.113Z,17.81
2019-02-14T03:49:08.945Z,17.8
2019-02-14T03:50:08.630Z,17.8
2019-02-14T03:51:09.056Z,17.79
2019-02-14T03:52:09.247Z,17.8
2019-02-14T03:53:09.576Z,17.79
2019-02-14T03:54:10.345Z,17.78
2019-02-14T03:55:09.052Z,17.78
2019-02-14T03:56:10.493Z,17.78
2019-02-14T03:57:08.826Z,17.8
2019-02-14T03:58:08.699Z,17.79
2019-02-14T03:59:08.878Z,17.77
2019-02-14T04:00:08.875Z,17.78
2019-02-14T04:01:09.588Z,17.77
2019-02-14T04:02:08.972Z,17.77
2019-02-14T04:03:09.202Z,17.76
2019-02-14T04:04:09.180Z,17.76
2019-02-14T04:05:08.915Z,17.77
2019-02-14T04:06:09.858Z,17.76
2019-02-14T04:07:09.564Z,17.76
2019-02-14T04:08:08.699Z,17.75
2019-02-14T04:09:09.350Z,17.75
2019-02-14T04:10:08.646Z,17.74
2019-02-14T04:11:08.849Z,17.75
2019-02-14T04:12:09.053Z,17.73
2019-02-14T04:13:09.204Z,17.72
2019-02-14T04:14:09.857Z,17.73
2019-02-14T04:15:09.492Z,17.72
2019-02-14T04:16:09.579Z,17.73
2019-02-14T04:17:08.686Z,17.72
2019-02-14T04:18:09.006Z,17.73
2019-02-14T04:19:09.098Z,17.73
2019-02-14T04:20:09.306Z,17.72
2019-02-14T04:21:08.942Z,17.7
2019-02-14T04:22:08.833Z,17.69
2019-02-14T04:23:09.064Z,17.69
2019-02-14T04:24:09.459Z,17.67
2019-02-14T04:25:08.493Z,17.69
2019-02-14T04:26:08.868Z,17.68
2019-02-14T04:27:10.645Z,17.69
2019-02-14T04:28:09.219Z,17.69
2019-02-14T04:29:08.845Z,17.69
2019-02-14T04:30:09.218Z,17.68
2019-02-14T04:31:08.822Z,17.67
2019-02-14T04:32:09.086Z,17.67
2019-02-14T04:33:09.100Z,17.68
2019-02-14T04:34:09.014Z,17.68
2019-02-14T04:35:09.136Z,17.66
2019-02-14T04:36:08.937Z,17.69
2019-02-14T04:37:09.355Z,17.66
2019-02-14T04:38:09.341Z,17.66
2019-02-14T04:39:09.107Z,17.66
2019-02-14T04:40:08.965Z,17.67
2019-02-14T04:41:08.732Z,17.66
2019-02-14T04:42:09.253Z,17.65
2019-02-14T04:43:08.697Z,17.64
2019-02-14T04:44:08.609Z,17.65
2019-02-14T04:45:08.433Z,17.64
2019-02-14T04:46:09.095Z,17.65
2019-02-14T04:47:09.682Z,17.65
2019-02-14T04:48:09.011Z,17.65
2019-02-14T04:49:09.129Z,17.67
2019-02-14T04:50:09.064Z,17.67
2019-02-14T04:51:08.980Z,17.67
2019-02-14T04:52:10.603Z,17.68
2019-02-14T04:53:09.114Z,17.69
2019-02-14T04:54:08.990Z,17.69
2019-02-14T04:55:08.890Z,17.68
2019-02-14T04:56:08.745Z,17.7
2019-02-14T04:57:08.768Z,17.72
2019-02-14T04:58:09.498Z,17.73
2019-02-14T04:59:10.642Z,17.74
2019-02-14T05:00:08.877Z,17.73
2019-02-14T05:01:09.304Z,17.73
2019-02-14T05:02:08.948Z,17.74
2019-02-14T05:03:08.829Z,17.73
2019-02-14T05:04:10.658Z,17.74
2019-02-14T05:05:09.370Z,17.76
2019-02-14T05:06:09.029Z,17.76
2019-02-14T05:07:09.340Z,17.77
2019-02-14T05:08:08.766Z,17.81
2019-02-14T05:09:09.059Z,17.83
2019-02-14T05:10:09.238Z,17.84
2019-02-14T05:11:08.971Z,17.84
2019-02-14T05:12:08.667Z,17.87
2019-02-14T05:13:09.109Z,17.88
2019-02-14T05:14:08.518Z,17.89
2019-02-14T05:15:09.933Z,17.91
2019-02-14T05:16:08.695Z,17.93
2019-02-14T05:17:08.938Z,17.95
2019-02-14T05:18:09.132Z,17.95
2019-02-14T05:19:10.709Z,17.98
2019-02-14T05:20:10.189Z,17.98
2019-02-14T05:21:09.463Z,17.99
2019-02-14T05:22:09.702Z,18.02
2019-02-14T05:23:08.696Z,18.04
2019-02-14T05:24:09.199Z,18.07
2019-02-14T05:25:08.904Z,18.05
2019-02-14T05:26:08.989Z,18.08
2019-02-14T05:27:08.584Z,18.11
2019-02-14T05:28:08.997Z,18.11
2019-02-14T05:29:08.993Z,18.13
2019-02-14T05:30:08.710Z,18.12
2019-02-14T05:31:08.898Z,18.17
2019-02-14T05:32:08.820Z,18.17
2019-02-14T05:33:08.694Z,18.2
2019-02-14T05:34:08.925Z,18.21
2019-02-14T05:35:08.923Z,18.23
2019-02-14T05:36:09.063Z,18.24
2019-02-14T05:37:08.938Z,18.22
2019-02-14T05:38:09.152Z,18.28
2019-02-14T05:39:09.223Z,18.28
2019-02-14T05:40:09.123Z,18.27
2019-02-14T05:41:09.140Z,18.28
2019-02-14T05:42:09.638Z,18.29
2019-02-14T05:43:09.920Z,18.32
2019-02-14T05:44:08.755Z,18.34
2019-02-14T05:45:08.750Z,18.33
2019-02-14T05:46:09.082Z,18.34
2019-02-14T05:47:09.064Z,18.37
2019-02-14T05:48:08.747Z,18.37
2019-02-14T05:49:08.830Z,18.39
2019-02-14T05:50:08.777Z,18.42
2019-02-14T05:51:09.265Z,18.42
2019-02-14T05:52:09.470Z,18.42
2019-02-14T05:53:08.816Z,18.42
2019-02-14T05:54:09.239Z,18.46
2019-02-14T05:55:08.682Z,18.43
2019-02-14T05:56:09.017Z,18.46
2019-02-14T05:57:09.018Z,18.49
2019-02-14T05:58:08.895Z,18.49
2019-02-14T05:59:09.117Z,18.49
2019-02-14T06:00:09.163Z,18.49
2019-02-14T06:01:08.671Z,18.51
2019-02-14T06:02:08.899Z,18.5
2019-02-14T06:03:09.022Z,18.5
2019-02-14T06:04:09.482Z,18.53
2019-02-14T06:05:09.569Z,18.54
2019-02-14T06:06:08.964Z,18.54
2019-02-14T06:07:10.462Z,18.51
2019-02-14T06:08:10.080Z,18.55
2019-02-14T06:09:08.902Z,18.54
2019-02-14T06:10:09.006Z,18.56
2019-02-14T06:11:09.020Z,18.57
2019-02-14T06:12:08.944Z,18.57
2019-02-14T06:13:09.314Z,18.59
2019-02-14T06:14:10.079Z,18.57
2019-02-14T06:15:08.540Z,18.62
2019-02-14T06:16:08.939Z,18.59
2019-02-14T06:17:09.026Z,18.61
2019-02-14T06:18:08.932Z,18.58
2019-02-14T06:19:08.856Z,18.61
2019-02-14T06:20:09.190Z,18.61
2019-02-14T06:21:08.988Z,18.63
2019-02-14T06:22:08.696Z,18.62
2019-02-14T06:23:08.712Z,18.62
2019-02-14T06:24:09.050Z,18.65
2019-02-14T06:25:09.201Z,18.63
2019-02-14T06:26:09.748Z,18.62
2019-02-14T06:27:09.420Z,18.66
2019-02-14T06:28:08.944Z,18.65
2019-02-14T06:29:08.810Z,18.64
2019-02-14T06:30:08.736Z,18.65
2019-02-14T06:31:08.972Z,18.65
2019-02-14T06:32:09.647Z,18.66
2019-02-14T06:33:08.959Z,18.66
2019-02-14T06:34:08.860Z,18.66
2019-02-14T06:35:08.967Z,18.68
2019-02-14T06:36:09.778Z,18.65
2019-02-14T06:37:10.338Z,18.66
2019-02-14T06:38:08.704Z,18.67
2019-02-14T06:39:09.393Z,18.65
2019-02-14T06:40:08.647Z,18.65
2019-02-14T06:41:09.082Z,18.67
2019-02-14T06:42:08.490Z,18.66
2019-02-14T06:43:08.923Z,18.68
2019-02-14T06:44:08.874Z,18.66
2019-02-14T06:45:08.547Z,18.66
2019-02-14T06:46:09.478Z,18.66
2019-02-14T06:47:08.981Z,18.66
2019-02-14T06:48:08.651Z,18.67
2019-02-14T06:49:10.457Z,18.66
2019-02-14T06:50:09.443Z,18.66
2019-02-14T06:51:08.615Z,18.68
2019-02-14T06:52:09.781Z,18.66
2019-02-14T06:53:08.700Z,18.66
2019-02-14T06:54:08.447Z,18.68
2019-02-14T06:55:08.641Z,18.67
2019-02-14T06:56:08.900Z,18.68
2019-02-14T06:57:08.732Z,18.69
2019-02-14T06:58:08.981Z,18.67
2019-02-14T06:59:08.731Z,18.66
2019-02-14T07:00:08.738Z,18.67
2019-02-14T07:01:08.817Z,18.68
2019-02-14T07:02:08.732Z,18.67
2019-02-14T07:03:08.511Z,18.68
2019-02-14T07:04:09.233Z,18.68
2019-02-14T07:05:10.617Z,18.68
2019-02-14T07:06:08.799Z,18.67
2019-02-14T07:07:08.889Z,18.66
2019-02-14T07:08:09.821Z,18.67
2019-02-14T07:09:08.694Z,18.66
2019-02-14T07:10:09.405Z,18.66
2019-02-14T07:11:09.776Z,18.67
2019-02-14T07:12:09.074Z,18.66
2019-02-14T07:13:09.561Z,18.66
2019-02-14T07:14:08.852Z,18.67
2019-02-14T07:15:09.092Z,18.66
2019-02-14T07:16:10.583Z,18.65
2019-02-14T07:17:08.863Z,18.65
2019-02-14T07:18:10.555Z,18.65
2019-02-14T07:19:08.662Z,18.65
2019-02-14T07:20:09.412Z,18.64
2019-02-14T07:21:08.924Z,18.66
2019-02-14T07:22:08.829Z,18.65
2019-02-14T07:23:08.810Z,18.63
2019-02-14T07:24:09.394Z,18.64
2019-02-14T07:25:08.637Z,18.64
2019-02-14T07:26:08.723Z,18.62
2019-02-14T07:27:09.247Z,18.62
2019-02-14T07:28:08.724Z,18.62
2019-02-14T07:29:08.793Z,18.63
2019-02-14T07:30:09.171Z,18.62
2019-02-14T07:31:09.012Z,18.62
2019-02-14T07:32:10.699Z,18.64
2019-02-14T07:33:09.723Z,18.63
2019-02-14T07:34:09.559Z,18.63
2019-02-14T07:35:10.506Z,18.61
2019-02-14T07:36:10.648Z,18.63
2019-02-14T07:37:09.334Z,18.63
2019-02-14T07:38:10.564Z,18.62
2019-02-14T07:39:09.049Z,18.63
2019-02-14T07:40:09.568Z,18.64
2019-02-14T07:41:08.600Z,18.62
2019-02-14T07:42:08.742Z,18.62
2019-02-14T07:43:08.673Z,18.62
2019-02-14T07:44:08.749Z,18.63
2019-02-14T07:45:09.425Z,18.63
2019-02-14T07:46:09.437Z,18.62
2019-02-14T07:47:09.250Z,18.62
2019-02-14T07:48:08.729Z,18.64
2019-02-14T07:49:08.803Z,18.63
2019-02-14T07:50:08.824Z,18.64
2019-02-14T07:51:08.665Z,18.63
2019-02-14T07:52:08.890Z,18.65
2019-02-14T07:53:10.435Z,18.63
2019-02-14T07:54:08.909Z,18.65
2019-02-14T07:55:11.210Z,18.62
2019-02-14T07:56:09.607Z,18.63
2019-02-14T07:57:08.786Z,18.65
2019-02-14T07:58:08.826Z,18.62
2019-02-14T07:59:08.595Z,18.64
2019-02-14T08:00:08.939Z,18.65
2019-02-14T08:01:09.008Z,18.63
2019-02-14T08:02:09.159Z,18.64
2019-02-14T08:03:09.018Z,18.64
2019-02-14T08:04:08.815Z,18.65
2019-02-14T08:05:10.068Z,18.67
2019-02-14T08:06:08.730Z,18.66
2019-02-14T08:07:09.054Z,18.66
2019-02-14T08:08:08.669Z,18.64
2019-02-14T08:09:08.796Z,18.68
2019-02-14T08:10:09.044Z,18.65
2019-02-14T08:11:09.251Z,18.66
2019-02-14T08:12:08.901Z,18.67
2019-02-14T08:13:08.471Z,18.68
2019-02-14T08:14:08.785Z,18.66
2019-02-14T08:15:08.704Z,18.66
2019-02-14T08:16:10.192Z,18.68
2019-02-14T08:17:08.614Z,18.7
2019-02-14T08:18:09.172Z,18.69
2019-02-14T08:19:09.132Z,18.69
2019-02-14T08:20:08.675Z,18.69
2019-02-14T08:21:08.899Z,18.68
2019-02-14T08:22:10.458Z,18.67
2019-02-14T08:23:08.661Z,18.7
2019-02-14T08:24:08.820Z,18.69
2019-02-14T08:25:08.646Z,18.7
2019-02-14T08:26:11.448Z,18.7
2019-02-14T08:27:08.770Z,18.72
2019-02-14T08:28:09.580Z,18.7
2019-02-14T08:29:09.667Z,18.68
2019-02-14T08:30:08.771Z,18.68
2019-02-14T08:31:08.886Z,18.66
2019-02-14T08:32:08.908Z,18.62
2019-02-14T08:33:08.718Z,18.64
2019-02-14T08:34:08.867Z,18.62
2019-02-14T08:35:08.807Z,18.62
2019-02-14T08:36:08.858Z,18.62
2019-02-14T08:37:09.032Z,18.62
2019-02-14T08:38:08.692Z,18.64
2019-02-14T08:39:09.331Z,18.64
2019-02-14T08:40:08.899Z,18.63
2019-02-14T08:41:08.637Z,18.63
2019-02-14T08:42:09.672Z,18.64
2019-02-14T08:43:09.133Z,18.64
2019-02-14T08:44:08.812Z,18.64
2019-02-14T08:45:08.587Z,18.64
2019-02-14T08:46:09.099Z,18.66
2019-02-14T08:47:10.391Z,18.66
2019-02-14T08:48:09.324Z,18.66
2019-02-14T08:49:08.810Z,18.68
2019-02-14T08:50:08.761Z,18.68
2019-02-14T08:51:09.011Z,18.68
2019-02-14T08:52:08.863Z,18.69
2019-02-14T08:53:09.162Z,18.67
2019-02-14T08:54:08.754Z,18.69
2019-02-14T08:55:10.455Z,18.71
2019-02-14T08:56:08.949Z,18.71
2019-02-14T08:57:08.730Z,18.69
2019-02-14T08:58:08.821Z,18.72
2019-02-14T08:59:08.930Z,18.7
2019-02-14T09:00:10.580Z,18.69
2019-02-14T09:01:08.805Z,18.7
2019-02-14T09:02:09.283Z,18.72
2019-02-14T09:03:08.744Z,18.72
2019-02-14T09:04:09.090Z,18.71
2019-02-14T09:05:08.541Z,18.72
2019-02-14T09:06:08.553Z,18.72
2019-02-14T09:07:08.455Z,18.71
2019-02-14T09:08:08.549Z,18.69
2019-02-14T09:09:08.421Z,18.72
2019-02-14T09:10:08.689Z,18.69
2019-02-14T09:11:08.963Z,18.71
2019-02-14T09:12:08.772Z,18.72
2019-02-14T09:13:17.708Z,18.72
2019-02-14T09:14:09.229Z,18.71
2019-02-14T09:15:08.893Z,18.71
2019-02-14T09:16:08.736Z,18.7
2019-02-14T09:17:08.766Z,18.71
2019-02-14T09:18:09.216Z,18.71
2019-02-14T09:19:08.710Z,18.69
2019-02-14T09:20:09.146Z,18.72
2019-02-14T09:21:09.432Z,18.72
2019-02-14T09:22:10.026Z,18.74
2019-02-14T09:23:08.878Z,18.8
2019-02-14T09:24:08.430Z,18.82
2019-02-14T09:25:08.772Z,18.82
2019-02-14T09:26:09.264Z,18.83
2019-02-14T09:27:08.625Z,18.84
2019-02-14T09:28:08.668Z,18.84
2019-02-14T09:29:08.773Z,18.86
2019-02-14T09:30:08.957Z,18.86
2019-02-14T09:31:08.981Z,18.91
2019-02-14T09:32:08.794Z,18.88
2019-02-14T09:33:10.320Z,18.93
2019-02-14T09:34:10.444Z,18.91
2019-02-14T09:35:08.667Z,18.93
2019-02-14T09:36:09.076Z,18.94
2019-02-14T09:37:08.632Z,18.97
2019-02-14T09:38:08.881Z,18.99
2019-02-14T09:39:08.758Z,19
2019-02-14T09:40:09.131Z,19
2019-02-14T09:41:08.737Z,19.02
2019-02-14T09:42:08.559Z,19.03
2019-02-14T09:43:09.673Z,19.03
2019-02-14T09:44:09.569Z,19.06
2019-02-14T09:45:08.825Z,19.09
2019-02-14T09:46:09.183Z,19.09
2019-02-14T09:47:08.983Z,19.09
2019-02-14T09:48:08.939Z,19.09
2019-02-14T09:49:08.746Z,19.1
2019-02-14T09:50:08.669Z,19.12
2019-02-14T09:51:08.717Z,19.12
2019-02-14T09:52:08.517Z,19.12
2019-02-14T09:53:08.860Z,19.13
2019-02-14T09:54:10.459Z,19.14
2019-02-14T09:55:08.704Z,19.16
2019-02-14T09:56:09.189Z,19.14
2019-02-14T09:57:09.534Z,19.16
2019-02-14T09:58:09.892Z,19.17
2019-02-14T09:59:09.286Z,19.17
2019-02-14T10:00:08.750Z,19.17
2019-02-14T10:01:08.980Z,19.16
2019-02-14T10:02:09.998Z,19.18
2019-02-14T10:03:08.709Z,19.17
2019-02-14T10:04:08.695Z,19.2
2019-02-14T10:05:09.149Z,19.18
2019-02-14T10:06:09.792Z,19.2
2019-02-14T10:07:08.715Z,19.18
2019-02-14T10:08:13.530Z,19.2
2019-02-14T10:09:09.338Z,19.21
2019-02-14T10:10:09.223Z,19.21
2019-02-14T10:11:10.550Z,19.2
2019-02-14T10:12:08.939Z,19.21
2019-02-14T10:13:09.711Z,19.2
2019-02-14T10:14:08.913Z,19.21
2019-02-14T10:15:08.773Z,19.18
2019-02-14T10:16:08.852Z,19.18
2019-02-14T10:17:08.829Z,19.17
2019-02-14T10:18:10.434Z,19.17
2019-02-14T10:19:08.829Z,19.17
2019-02-14T10:20:08.690Z,19.16
2019-02-14T10:21:08.766Z,19.17
2019-02-14T10:22:08.836Z,19.16
2019-02-14T10:23:08.868Z,19.15
2019-02-14T10:24:08.485Z,19.13
2019-02-14T10:25:08.612Z,19.16
2019-02-14T10:26:08.383Z,19.16
2019-02-14T10:27:09.735Z,19.14
2019-02-14T10:28:08.837Z,19.17
2019-02-14T10:29:08.707Z,19.14
2019-02-14T10:30:08.842Z,19.15
2019-02-14T10:31:08.719Z,19.15
2019-02-14T10:32:08.815Z,19.14
2019-02-14T10:33:09.026Z,19.13
2019-02-14T10:34:10.111Z,19.14
2019-02-14T10:35:08.900Z,19.12
2019-02-14T10:36:09.001Z,19.16
2019-02-14T10:37:08.367Z,19.15
2019-02-14T10:38:08.770Z,19.14
2019-02-14T10:39:08.877Z,19.15
2019-02-14T10:40:08.369Z,19.15
2019-02-14T10:41:08.717Z,19.15
2019-02-14T10:42:09.855Z,19.17
2019-02-14T10:43:08.776Z,19.17
2019-02-14T10:44:08.722Z,19.17
2019-02-14T10:45:09.360Z,19.2
2019-02-14T10:46:08.715Z,19.18
2019-02-14T10:47:08.789Z,19.2
2019-02-14T10:48:10.710Z,19.18
2019-02-14T10:49:08.307Z,19.2
2019-02-14T10:50:08.662Z,19.21
2019-02-14T10:51:08.747Z,19.21
2019-02-14T10:52:09.091Z,19.22
2019-02-14T10:53:08.997Z,19.22
2019-02-14T10:54:08.653Z,19.22
2019-02-14T10:55:08.981Z,19.21
2019-02-14T10:56:08.635Z,19.21
2019-02-14T10:57:08.601Z,19.22
2019-02-14T10:58:08.759Z,19.21
2019-02-14T10:59:08.814Z,19.22
2019-02-14T11:00:08.648Z,19.25
2019-02-14T11:01:08.727Z,19.24
2019-02-14T11:02:10.561Z,19.25
2019-02-14T11:03:08.874Z,19.27
2019-02-14T11:04:08.747Z,19.29
2019-02-14T11:05:08.947Z,19.29
2019-02-14T11:06:08.949Z,19.29
2019-02-14T11:07:08.672Z,19.3
2019-02-14T11:08:08.919Z,19.3
2019-02-14T11:09:08.691Z,19.3
2019-02-14T11:10:09.346Z,19.31
2019-02-14T11:11:09.310Z,19.33
2019-02-14T11:12:08.995Z,19.37
2019-02-14T11:13:08.710Z,19.36
2019-02-14T11:14:09.431Z,19.36
2019-02-14T11:15:09.497Z,19.38
2019-02-14T11:16:10.105Z,19.38
2019-02-14T11:17:08.907Z,19.38
2019-02-14T11:18:08.928Z,19.38
2019-02-14T11:19:08.711Z,19.37
2019-02-14T11:20:09.348Z,19.38
2019-02-14T11:21:09.737Z,19.36
2019-02-14T11:22:08.437Z,19.36
2019-02-14T11:23:09.328Z,19.36
2019-02-14T11:24:09.068Z,19.35
2019-02-14T11:25:08.872Z,19.37
2019-02-14T11:26:09.041Z,19.33
2019-02-14T11:27:08.730Z,19.36
2019-02-14T11:28:10.602Z,19.36
2019-02-14T11:29:09.162Z,19.38
2019-02-14T11:30:08.603Z,19.37
2019-02-14T11:31:09.605Z,19.36
2019-02-14T11:32:09.648Z,19.39
2019-02-14T11:33:09.113Z,19.42
2019-02-14T11:34:09.225Z,19.4
2019-02-14T11:35:08.970Z,19.38
2019-02-14T11:36:08.670Z,19.39
2019-02-14T11:37:09.100Z,19.41
2019-02-14T11:38:08.791Z,19.4
2019-02-14T11:39:08.760Z,19.4
2019-02-14T11:40:08.936Z,19.4
2019-02-14T11:41:10.314Z,19.4
2019-02-14T11:42:09.006Z,19.41
2019-02-14T11:43:09.206Z,19.39
2019-02-14T11:44:08.903Z,19.38
2019-02-14T11:45:08.742Z,19.39
2019-02-14T11:46:09.142Z,19.37
2019-02-14T11:47:08.982Z,19.37
2019-02-14T11:48:08.647Z,19.38
2019-02-14T11:49:09.662Z,19.38
2019-02-14T11:50:10.313Z,19.37
2019-02-14T11:51:08.748Z,19.36
2019-02-14T11:52:09.090Z,19.39
2019-02-14T11:54:08.400Z,19.38
2019-02-14T11:55:09.102Z,19.38
2019-02-14T11:55:13.707Z,19.35
2019-02-14T11:56:10.293Z,19.36
2019-02-14T11:57:08.729Z,19.4
2019-02-14T11:58:08.998Z,19.38
2019-02-14T11:59:09.307Z,19.39
2019-02-14T12:00:08.462Z,19.38
2019-02-14T12:01:09.778Z,19.4
2019-02-14T12:02:08.641Z,19.38
2019-02-14T12:03:09.219Z,19.38
2019-02-14T12:04:08.836Z,19.4
2019-02-14T12:05:08.891Z,19.4
2019-02-14T12:06:08.732Z,19.42
2019-02-14T12:07:08.681Z,19.41
2019-02-14T12:08:09.875Z,19.42
2019-02-14T12:09:08.616Z,19.42
2019-02-14T12:10:14.160Z,19.42
2019-02-14T12:11:09.224Z,19.43
2019-02-14T12:12:08.743Z,19.44
2019-02-14T12:13:09.148Z,19.45
2019-02-14T12:14:09.057Z,19.45
2019-02-14T12:15:08.391Z,19.47
2019-02-14T12:16:09.996Z,19.47
2019-02-14T12:17:09.917Z,19.48
2019-02-14T12:18:08.696Z,19.5
2019-02-14T12:19:08.763Z,19.51
2019-02-14T12:20:12.987Z,19.52
2019-02-14T12:21:08.660Z,19.52
2019-02-14T12:22:08.687Z,19.53
2019-02-14T12:23:09.685Z,19.56
2019-02-14T12:24:08.400Z,19.54
2019-02-14T12:25:08.743Z,19.56
2019-02-14T12:26:09.027Z,19.58
2019-02-14T12:27:09.021Z,19.59
2019-02-14T12:28:08.475Z,19.57
2019-02-14T12:29:09.705Z,19.58
2019-02-14T12:30:08.852Z,19.6
2019-02-14T12:31:08.728Z,19.6
2019-02-14T12:32:09.708Z,19.62
2019-02-14T12:33:08.969Z,19.62
2019-02-14T12:34:10.332Z,19.61
2019-02-14T12:35:08.964Z,19.61
2019-02-14T12:36:08.825Z,19.62
2019-02-14T12:37:09.669Z,19.66
2019-02-14T12:38:08.628Z,19.63
2019-02-14T12:39:12.022Z,19.69
2019-02-14T12:40:10.301Z,19.66
2019-02-14T12:41:10.550Z,19.67
2019-02-14T12:42:08.650Z,19.68
2019-02-14T12:43:08.783Z,19.68
2019-02-14T12:44:09.038Z,19.68
2019-02-14T12:45:09.402Z,19.68
2019-02-14T12:46:08.897Z,19.67
2019-02-14T12:47:08.886Z,19.69
2019-02-14T12:48:08.651Z,19.69
2019-02-14T12:49:08.785Z,19.67
2019-02-14T12:50:10.422Z,19.66
2019-02-14T12:51:08.685Z,19.65
2019-02-14T12:52:09.024Z,19.65
2019-02-14T12:53:09.056Z,19.66
2019-02-14T12:54:08.409Z,19.65
2019-02-14T12:55:08.959Z,19.63